Time;durP1;ratioP1;P1;durP2;ratioP2;P2;SDS_P1;SDS_P2;PMS_P1;PMS_P2;Temp;Humidity;BMP_temperature;BMP_pressure;BME280_temperature;BME280_humidity;BME280_pressure;Samples;Min_cycle;Max_cycle;Signal;HPM_P1;HPM_P2
2022/03/23 00:00:49;;;;;;;43.53;30.25;;;9.90;99.90;;;;;;5012950;28;20121;-71
2022/03/23 00:03:15;;;;;;;37.25;28.00;;;9.90;99.90;;;;;;5013073;28;20076;-71
2022/03/23 00:05:42;;;;;;;39.55;27.85;;;9.90;99.90;;;;;;5013367;28;20034;-71
2022/03/23 00:08:08;;;;;;;39.53;28.50;;;9.80;99.90;;;;;;5012981;28;20445;-71
2022/03/23 00:10:34;;;;;;;36.70;28.25;;;9.80;99.90;;;;;;5012871;28;20178;-71
2022/03/23 00:13:00;;;;;;;36.60;28.17;;;9.80;99.90;;;;;;5013152;28;20052;-71
2022/03/23 00:15:27;;;;;;;38.13;28.65;;;9.70;99.90;;;;;;4996516;28;20414;-71
2022/03/23 00:17:54;;;;;;;36.22;28.17;;;9.70;99.90;;;;;;5013126;28;20124;-71
2022/03/23 00:20:20;;;;;;;38.17;28.85;;;9.70;99.90;;;;;;5012680;28;20038;-71
2022/03/23 00:22:45;;;;;;;34.55;28.17;;;9.70;99.90;;;;;;5012759;28;20046;-71
2022/03/23 00:25:12;;;;;;;44.92;28.70;;;9.60;99.90;;;;;;5013030;28;20037;-72
2022/03/23 00:27:38;;;;;;;34.63;27.17;;;9.60;99.90;;;;;;5012933;28;20041;-72
2022/03/23 00:30:05;;;;;;;37.95;29.75;;;9.60;99.90;;;;;;5012549;28;20044;-71
2022/03/23 00:32:30;;;;;;;40.22;30.17;;;9.50;99.90;;;;;;5012816;28;20041;-71
2022/03/23 00:34:56;;;;;;;38.53;30.33;;;9.50;99.90;;;;;;5012285;28;20042;-71
2022/03/23 00:37:23;;;;;;;41.08;31.40;;;9.50;99.90;;;;;;4995679;28;20092;-71
2022/03/23 00:39:49;;;;;;;40.38;30.02;;;9.50;99.90;;;;;;5012527;28;20033;-71
2022/03/23 00:42:15;;;;;;;41.88;32.10;;;9.50;99.90;;;;;;4996105;28;20509;-71
2022/03/23 00:44:41;;;;;;;42.88;31.63;;;9.50;99.90;;;;;;5012400;28;20045;-71
2022/03/23 00:47:07;;;;;;;39.22;31.27;;;9.60;99.90;;;;;;5012410;28;20034;-71
2022/03/23 00:49:34;;;;;;;45.03;33.47;;;9.60;99.90;;;;;;5012274;28;20060;-71
2022/03/23 00:52:04;;;;;;;41.92;30.70;;;9.60;99.90;;;;;;4996025;28;20133;-71
2022/03/23 00:54:30;;;;;;;45.28;32.58;;;9.70;99.90;;;;;;5012287;28;20046;-71
2022/03/23 00:56:55;;;;;;;46.08;33.78;;;9.70;99.90;;;;;;4995886;28;20049;-71
2022/03/23 00:59:22;;;;;;;47.15;32.83;;;9.70;99.90;;;;;;5012065;28;20038;-71
2022/03/23 01:01:48;;;;;;;43.47;32.70;;;9.70;99.90;;;;;;5012193;28;20061;-71
2022/03/23 01:04:14;;;;;;;40.78;32.65;;;9.60;99.90;;;;;;5012167;28;20041;-71
2022/03/23 01:06:41;;;;;;;44.70;32.28;;;9.60;99.90;;;;;;5012108;28;20410;-71
2022/03/23 01:09:06;;;;;;;42.78;32.35;;;9.60;99.90;;;;;;5012073;28;20512;-71
2022/03/23 01:11:32;;;;;;;46.50;33.35;;;9.60;99.90;;;;;;5012398;28;20045;-71
2022/03/23 01:13:57;;;;;;;43.22;31.70;;;9.60;99.90;;;;;;5012109;28;20489;-71
2022/03/23 01:16:23;;;;;;;44.60;31.88;;;9.60;99.90;;;;;;5012070;28;20038;-71
2022/03/23 01:18:48;;;;;;;42.30;32.13;;;9.60;99.90;;;;;;5011864;28;20042;-71
2022/03/23 01:21:14;;;;;;;46.72;31.85;;;9.50;99.90;;;;;;4995660;28;20057;-71
2022/03/23 01:23:40;;;;;;;41.00;31.25;;;9.50;99.90;;;;;;5011932;28;20041;-71
2022/03/23 01:26:06;;;;;;;40.65;30.05;;;9.50;99.90;;;;;;5011991;28;20038;-71
2022/03/23 01:28:32;;;;;;;40.85;31.80;;;9.40;99.90;;;;;;5011940;28;20064;-71
2022/03/23 01:30:57;;;;;;;38.00;30.33;;;9.30;99.90;;;;;;4995481;28;20168;-71
2022/03/23 01:33:23;;;;;;;40.47;30.50;;;9.20;99.90;;;;;;5011893;28;20085;-71
2022/03/23 01:35:49;;;;;;;40.47;31.38;;;9.10;99.90;;;;;;5011827;28;20046;-71
2022/03/23 01:38:14;;;;;;;41.17;31.02;;;9.10;99.90;;;;;;5011835;28;20161;-71
2022/03/23 01:40:40;;;;;;;40.97;31.27;;;9.00;99.90;;;;;;5011816;28;20108;-71
2022/03/23 01:43:06;;;;;;;40.00;29.42;;;8.90;99.90;;;;;;5011764;28;20041;-71
2022/03/23 01:45:31;;;;;;;42.83;30.85;;;8.90;99.90;;;;;;5011827;28;20034;-71
2022/03/23 01:47:57;;;;;;;35.72;28.55;;;8.80;99.90;;;;;;5014175;28;20072;-71
2022/03/23 01:50:23;;;;;;;38.85;28.60;;;8.70;99.90;;;;;;5015457;28;20042;-71
2022/03/23 01:52:48;;;;;;;42.50;29.60;;;8.70;99.90;;;;;;5015453;28;20096;-71
2022/03/23 01:55:14;;;;;;;40.17;30.70;;;8.60;99.90;;;;;;5015464;28;20084;-71
2022/03/23 01:57:44;;;;;;;38.28;30.25;;;8.50;99.90;;;;;;5015443;28;20091;-71
2022/03/23 02:00:11;;;;;;;40.45;29.25;;;8.40;99.90;;;;;;5015264;28;20034;-71
2022/03/23 02:02:36;;;;;;;43.38;30.10;;;8.40;99.90;;;;;;4999260;28;20479;-71
2022/03/23 02:05:03;;;;;;;40.65;29.23;;;8.30;99.90;;;;;;5015298;28;20140;-71
2022/03/23 02:07:30;;;;;;;37.58;28.15;;;8.30;99.90;;;;;;5015250;28;20486;-71
2022/03/23 02:09:56;;;;;;;41.60;30.40;;;8.30;99.90;;;;;;5015165;28;20117;-71
2022/03/23 02:12:22;;;;;;;45.13;31.10;;;8.20;99.90;;;;;;5015404;28;20209;-71
2022/03/23 02:14:48;;;;;;;38.85;30.08;;;8.10;99.90;;;;;;5015418;28;20512;-71
2022/03/23 02:17:14;;;;;;;39.38;28.95;;;8.10;99.90;;;;;;5015118;28;20172;-73
2022/03/23 02:19:40;;;;;;;37.75;29.15;;;8.00;99.90;;;;;;5014891;28;20136;-73
2022/03/23 02:22:06;;;;;;;40.03;29.80;;;8.00;99.90;;;;;;5015010;28;20046;-74
2022/03/23 02:24:33;;;;;;;42.10;31.23;;;8.00;99.90;;;;;;5014923;28;20034;-74
2022/03/23 02:26:59;;;;;;;42.85;30.65;;;8.00;99.90;;;;;;5014877;28;20044;-74
2022/03/23 02:29:32;;;;;;;42.97;29.80;;;8.00;99.90;;;;;;5014775;28;20082;-73
2022/03/23 02:31:58;;;;;;;39.80;29.98;;;8.00;99.90;;;;;;5015163;28;20068;-73
2022/03/23 02:34:25;;;;;;;36.85;29.27;;;8.00;99.90;;;;;;4998481;28;20046;-74
2022/03/23 02:36:52;;;;;;;41.08;29.10;;;7.90;99.90;;;;;;4998412;28;20465;-74
2022/03/23 02:39:17;;;;;;;39.60;29.85;;;7.90;99.90;;;;;;5040820;22;20033;-71
2022/03/23 02:41:43;;;;;;;37.75;29.27;;;7.80;99.90;;;;;;5018485;28;20043;-71
2022/03/23 02:44:15;;;;;;;41.65;28.48;;;7.80;99.90;;;;;;5017854;28;20452;-71
2022/03/23 02:46:41;;;;;;;36.05;28.52;;;7.80;99.90;;;;;;5018123;28;20397;-71
2022/03/23 02:49:07;;;;;;;42.22;28.83;;;7.70;99.90;;;;;;5017906;28;20493;-71
2022/03/23 02:51:33;;;;;;;41.28;30.75;;;7.70;99.90;;;;;;5017707;28;20041;-71
2022/03/23 03:02:40;;;;;;;41.10;29.58;;;7.60;99.90;;;;;;5017472;28;20046;-71
2022/03/23 03:05:07;;;;;;;38.70;28.83;;;7.60;99.90;;;;;;5017525;28;20120;-71
2022/03/23 03:10:17;;;;;;;39.67;30.42;;;7.60;99.90;;;;;;5017287;28;20077;-71
2022/03/23 03:12:43;;;;;;;41.22;31.02;;;7.60;99.90;;;;;;5017301;28;20135;-71
2022/03/23 03:15:13;;;;;;;42.00;30.30;;;7.50;99.90;;;;;;5000940;28;20042;-71
2022/03/23 03:17:39;;;;;;;42.75;30.08;;;7.50;99.90;;;;;;5017134;28;20048;-71
2022/03/23 03:20:06;;;;;;;38.40;28.95;;;7.50;99.90;;;;;;5017064;28;20037;-71
2022/03/23 03:22:40;;;;;;;42.75;30.27;;;7.50;99.90;;;;;;5017385;28;20041;-71
2022/03/23 03:25:08;;;;;;;44.33;32.08;;;7.50;99.90;;;;;;5017349;28;20086;-71
2022/03/23 03:27:37;;;;;;;41.28;31.73;;;7.40;99.90;;;;;;5017227;28;20111;-71
2022/03/23 03:30:04;;;;;;;44.08;31.55;;;7.40;99.90;;;;;;5016882;28;20124;-71
2022/03/23 03:32:31;;;;;;;41.55;32.05;;;7.40;99.90;;;;;;5016870;28;20046;-71
2022/03/23 03:34:57;;;;;;;42.53;31.48;;;7.40;99.90;;;;;;5016866;28;20048;-71
2022/03/23 03:37:22;;;;;;;46.25;33.15;;;7.30;99.90;;;;;;5016781;28;20091;-71
2022/03/23 03:39:48;;;;;;;47.25;32.22;;;7.30;99.90;;;;;;5016775;28;20038;-71
2022/03/23 03:42:18;;;;;;;43.42;32.78;;;7.30;99.90;;;;;;5016823;28;20501;-71
2022/03/23 03:44:44;;;;;;;43.10;31.80;;;7.30;99.90;;;;;;5016937;28;20041;-71
2022/03/23 03:47:10;;;;;;;45.25;30.90;;;7.30;99.90;;;;;;5016621;28;20029;-71
2022/03/23 03:49:37;;;;;;;44.42;32.75;;;7.30;99.90;;;;;;5016821;28;20497;-71
2022/03/23 03:52:03;;;;;;;46.38;33.28;;;7.30;99.90;;;;;;5016548;28;20041;-71
2022/03/23 03:54:29;;;;;;;43.70;33.00;;;7.30;99.90;;;;;;5016477;28;20513;-71
2022/03/23 03:56:54;;;;;;;42.90;31.70;;;7.30;99.90;;;;;;5000424;28;20119;-71
2022/03/23 03:59:20;;;;;;;45.78;34.22;;;7.30;99.90;;;;;;5016321;28;20493;-71
2022/03/23 04:01:46;;;;;;;46.53;34.85;;;7.30;99.90;;;;;;5016624;28;20076;-71
2022/03/23 04:04:11;;;;;;;45.17;34.70;;;7.30;99.90;;;;;;5016504;28;20037;-71
2022/03/23 04:06:37;;;;;;;50.92;35.20;;;7.30;99.90;;;;;;5000105;28;20083;-71
2022/03/23 04:09:03;;;;;;;46.15;34.55;;;7.30;99.90;;;;;;5016322;28;20067;-71
2022/03/23 04:11:30;;;;;;;49.15;36.10;;;7.20;99.90;;;;;;5015958;28;20037;-71
2022/03/23 04:13:55;;;;;;;46.50;33.50;;;7.20;99.90;;;;;;5016441;28;20037;-71
2022/03/23 04:16:21;;;;;;;49.00;33.95;;;7.20;99.90;;;;;;4999692;28;20559;-71
2022/03/23 04:18:47;;;;;;;50.15;37.10;;;7.10;99.90;;;;;;5016058;28;20042;-71
2022/03/23 04:21:13;;;;;;;47.45;34.35;;;7.10;99.90;;;;;;5016234;28;20052;-71
2022/03/23 04:23:38;;;;;;;47.72;34.13;;;7.10;99.90;;;;;;5016259;28;20087;-71
2022/03/23 04:26:04;;;;;;;41.75;33.08;;;7.10;99.90;;;;;;4999498;28;20125;-71
2022/03/23 04:28:30;;;;;;;50.67;35.65;;;7.10;99.90;;;;;;5015900;28;20042;-71
2022/03/23 04:30:56;;;;;;;46.50;35.42;;;7.10;99.90;;;;;;5015746;28;20072;-71
2022/03/23 04:33:21;;;;;;;51.97;36.90;;;7.10;99.90;;;;;;4999522;28;20037;-71
2022/03/23 04:35:47;;;;;;;51.88;36.00;;;7.10;99.90;;;;;;5015856;28;20045;-71
2022/03/23 04:38:13;;;;;;;51.38;37.28;;;7.10;99.90;;;;;;5015804;28;20075;-71
2022/03/23 04:40:38;;;;;;;52.63;36.90;;;7.10;99.90;;;;;;5015665;28;20048;-71
2022/03/23 04:43:04;;;;;;;49.70;36.15;;;7.10;99.90;;;;;;5015712;28;20073;-71
2022/03/23 04:45:30;;;;;;;57.58;37.63;;;7.00;99.90;;;;;;5015720;28;20046;-71
2022/03/23 04:47:56;;;;;;;52.78;38.50;;;7.00;99.90;;;;;;5015927;28;20044;-71
2022/03/23 04:50:21;;;;;;;53.05;38.97;;;7.00;99.90;;;;;;5015544;28;20474;-71
2022/03/23 04:52:48;;;;;;;53.72;37.70;;;7.00;99.90;;;;;;5015588;28;20048;-71
2022/03/23 04:55:15;;;;;;;47.13;36.50;;;6.90;99.90;;;;;;4999201;28;20041;-71
2022/03/23 04:57:42;;;;;;;47.95;36.17;;;6.90;99.90;;;;;;5015788;28;20045;-71
2022/03/23 05:00:13;;;;;;;50.97;37.88;;;6.90;99.90;;;;;;4998987;28;20034;-71
2022/03/23 05:02:40;;;;;;;52.83;37.90;;;6.90;99.90;;;;;;5015769;28;20081;-71
2022/03/23 05:05:07;;;;;;;50.00;37.40;;;6.80;99.90;;;;;;5015476;28;20500;-71
2022/03/23 05:07:33;;;;;;;54.50;38.15;;;6.80;99.90;;;;;;5015556;28;20056;-71
2022/03/23 05:09:59;;;;;;;48.67;35.75;;;6.80;99.90;;;;;;4998963;28;20038;-71
2022/03/23 05:12:24;;;;;;;47.83;35.88;;;6.70;99.90;;;;;;5015369;28;20041;-71
2022/03/23 05:14:50;;;;;;;52.10;35.55;;;6.70;99.90;;;;;;5015400;28;20041;-71
2022/03/23 05:17:15;;;;;;;46.85;36.05;;;6.70;99.90;;;;;;5015314;28;20060;-71
2022/03/23 05:19:41;;;;;;;47.50;36.33;;;6.70;99.90;;;;;;5015143;28;20096;-71
2022/03/23 05:22:06;;;;;;;48.60;36.80;;;6.70;99.90;;;;;;5016434;28;20037;-71
2022/03/23 05:24:32;;;;;;;50.20;36.72;;;6.60;99.90;;;;;;5002997;28;20034;-71
2022/03/23 05:26:58;;;;;;;49.75;37.33;;;6.60;99.90;;;;;;5019353;28;20092;-71
2022/03/23 05:29:24;;;;;;;55.35;39.47;;;6.60;99.90;;;;;;5019447;28;20049;-71
2022/03/23 05:31:49;;;;;;;58.60;40.58;;;6.60;99.90;;;;;;5019474;28;20409;-71
2022/03/23 05:34:16;;;;;;;57.47;40.40;;;6.60;99.90;;;;;;5019174;28;20042;-71
2022/03/23 05:36:41;;;;;;;55.58;38.50;;;6.50;99.90;;;;;;5019080;28;20120;-71
2022/03/23 05:39:07;;;;;;;60.97;41.05;;;6.50;99.90;;;;;;5002587;28;20076;-71
2022/03/23 05:41:33;;;;;;;56.92;38.95;;;6.50;99.90;;;;;;5019456;28;20462;-71
2022/03/23 05:43:58;;;;;;;48.83;37.33;;;6.50;99.90;;;;;;5018955;28;20509;-71
2022/03/23 05:46:25;;;;;;;48.83;37.15;;;6.50;99.90;;;;;;5019214;28;20042;-70
2022/03/23 05:48:53;;;;;;;51.78;35.47;;;6.50;99.90;;;;;;5018851;28;20124;-70
2022/03/23 05:51:19;;;;;;;50.70;37.60;;;6.60;99.90;;;;;;5002718;28;20045;-70
2022/03/23 05:53:45;;;;;;;55.10;37.42;;;6.60;99.90;;;;;;5002493;28;20042;-70
2022/03/23 05:56:11;;;;;;;53.65;37.72;;;6.50;99.90;;;;;;5018772;28;20045;-71
2022/03/23 05:58:36;;;;;;;54.22;39.00;;;6.50;99.90;;;;;;5018740;28;20048;-71
2022/03/23 06:01:02;;;;;;;51.28;36.80;;;6.50;99.90;;;;;;5018510;28;20045;-71
2022/03/23 06:03:29;;;;;;;54.40;39.60;;;6.60;99.90;;;;;;5018808;28;20037;-71
2022/03/23 06:05:54;;;;;;;53.90;37.75;;;6.50;99.90;;;;;;5018735;28;20056;-71
2022/03/23 06:08:21;;;;;;;51.47;38.80;;;6.60;99.90;;;;;;5018871;28;20517;-71
2022/03/23 06:10:46;;;;;;;53.47;36.75;;;6.60;99.90;;;;;;5018413;28;20120;-71
2022/03/23 06:13:12;;;;;;;54.08;38.15;;;6.60;99.90;;;;;;5002388;28;20045;-71
2022/03/23 06:15:37;;;;;;;48.97;36.42;;;6.60;99.90;;;;;;5018597;28;20037;-71
2022/03/23 06:18:03;;;;;;;50.67;37.90;;;6.70;99.90;;;;;;5018392;28;20045;-71
2022/03/23 06:20:29;;;;;;;52.67;38.38;;;6.70;99.90;;;;;;5018134;28;20116;-71
2022/03/23 06:22:54;;;;;;;48.15;37.72;;;6.70;99.90;;;;;;5018478;28;20042;-71
2022/03/23 06:25:20;;;;;;;48.67;37.85;;;6.80;99.90;;;;;;5018204;28;20044;-71
2022/03/23 06:27:45;;;;;;;48.92;37.28;;;6.80;99.90;;;;;;5018188;28;20091;-71
2022/03/23 06:30:11;;;;;;;47.95;37.25;;;6.80;99.90;;;;;;5018248;28;20042;-71
2022/03/23 06:32:37;;;;;;;50.70;36.83;;;6.90;99.90;;;;;;5018155;28;20048;-71
2022/03/23 06:35:04;;;;;;;54.38;37.95;;;6.90;99.90;;;;;;5016836;28;20128;-70
2022/03/23 06:37:30;;;;;;;56.25;38.03;;;6.90;99.90;;;;;;5018053;28;20414;-70
2022/03/23 06:39:57;;;;;;;53.30;40.42;;;7.00;99.90;;;;;;5017614;28;20125;-71
2022/03/23 06:42:23;;;;;;;54.63;38.72;;;7.00;99.90;;;;;;5018093;28;20041;-70
2022/03/23 06:44:50;;;;;;;52.00;37.33;;;7.10;99.90;;;;;;5018014;28;20049;-70
2022/03/23 06:47:16;;;;;;;53.75;37.63;;;7.10;99.90;;;;;;5017793;28;20501;-70
2022/03/23 06:49:42;;;;;;;50.33;37.80;;;7.20;99.90;;;;;;5017640;28;20083;-70
2022/03/23 06:52:08;;;;;;;51.13;37.50;;;7.30;99.90;;;;;;5017959;28;20042;-70
2022/03/23 06:54:34;;;;;;;51.83;37.30;;;7.30;99.90;;;;;;5017682;28;20048;-70
2022/03/23 06:56:59;;;;;;;52.03;37.50;;;7.40;99.90;;;;;;5017863;28;20049;-70
2022/03/23 06:59:25;;;;;;;50.85;36.95;;;7.50;99.90;;;;;;5017714;28;20037;-71
2022/03/23 07:01:50;;;;;;;44.72;35.10;;;7.50;99.90;;;;;;5001342;28;20497;-71
2022/03/23 07:04:16;;;;;;;46.58;34.45;;;7.60;99.90;;;;;;5017512;28;20148;-70
2022/03/23 07:06:42;;;;;;;46.47;35.85;;;7.70;99.90;;;;;;5001067;28;20037;-70
2022/03/23 07:11:52;;;;;;;50.45;36.83;;;7.90;99.90;;;;;;5017296;28;20041;-70
2022/03/23 07:14:18;;;;;;;49.40;35.35;;;7.90;99.90;;;;;;5001078;28;20033;-70
2022/03/23 07:16:44;;;;;;;45.08;34.20;;;8.10;99.90;;;;;;5017307;28;20389;-70
2022/03/23 07:19:10;;;;;;;49.30;34.95;;;8.20;99.90;;;;;;5017069;28;20037;-70
2022/03/23 07:21:36;;;;;;;46.13;34.22;;;8.30;99.90;;;;;;5017131;28;20041;-70
2022/03/23 07:24:01;;;;;;;44.65;33.28;;;8.50;99.90;;;;;;5017144;28;20124;-70
2022/03/23 07:26:27;;;;;;;42.97;32.17;;;8.60;99.90;;;;;;5017434;28;20034;-71
2022/03/23 07:28:53;;;;;;;40.47;30.25;;;8.80;99.90;;;;;;5017287;28;20151;-71
2022/03/23 07:31:18;;;;;;;42.05;30.75;;;8.90;99.90;;;;;;5016916;28;20485;-70
2022/03/23 07:33:44;;;;;;;39.35;29.15;;;9.10;99.90;;;;;;5016976;28;20041;-70
2022/03/23 07:36:13;;;;;;;38.72;29.30;;;9.20;99.90;;;;;;5017138;28;20041;-70
2022/03/23 07:38:39;;;;;;;38.25;30.90;;;9.30;99.90;;;;;;5017304;28;20068;-70
2022/03/23 07:41:05;;;;;;;41.97;31.17;;;9.50;99.90;;;;;;5016486;28;20091;-70
2022/03/23 07:43:31;;;;;;;41.53;30.85;;;9.60;99.90;;;;;;5016725;28;20038;-70
2022/03/23 07:45:56;;;;;;;40.60;29.77;;;9.70;99.90;;;;;;5000016;28;20404;-70
2022/03/23 07:48:23;;;;;;;43.55;30.45;;;9.90;99.90;;;;;;5016657;28;20044;-70
2022/03/23 07:50:50;;;;;;;40.67;29.52;;;10.00;99.90;;;;;;5016805;28;20077;-70
2022/03/23 07:53:16;;;;;;;37.80;29.23;;;10.10;99.90;;;;;;5016554;28;20041;-70
2022/03/23 07:55:42;;;;;;;37.60;27.80;;;10.30;99.90;;;;;;5016496;28;20052;-70
2022/03/23 07:58:07;;;;;;;39.88;29.33;;;10.40;99.90;;;;;;5000216;28;20056;-70
2022/03/23 08:00:33;;;;;;;36.63;27.25;;;10.50;99.90;;;;;;5016275;28;20041;-71
2022/03/23 08:02:58;;;;;;;36.85;26.35;;;10.70;99.90;;;;;;5016412;28;20130;-71
2022/03/23 08:05:25;;;;;;;35.90;27.02;;;10.90;99.90;;;;;;5016379;28;20048;-71
2022/03/23 08:07:51;;;;;;;40.40;27.55;;;11.10;99.90;;;;;;5016401;28;20091;-71
2022/03/23 08:10:16;;;;;;;37.50;26.35;;;11.20;99.90;;;;;;5016347;28;20037;-71
2022/03/23 08:12:42;;;;;;;39.30;26.92;;;11.40;99.90;;;;;;5000330;28;20072;-71
2022/03/23 08:15:09;;;;;;;38.63;26.90;;;11.70;99.90;;;;;;5016241;28;20033;-71
2022/03/23 08:17:38;;;;;;;32.47;25.08;;;12.00;98.90;;;;;;5016199;28;20124;-71
2022/03/23 08:22:50;;;;;;;34.63;26.05;;;12.50;91.30;;;;;;5016045;28;20045;-71
2022/03/23 08:25:16;;;;;;;32.40;25.70;;;12.80;91.20;;;;;;5016313;28;20033;-71
2022/03/23 08:27:42;;;;;;;30.13;24.20;;;13.10;90.30;;;;;;4999680;28;20044;-71
2022/03/23 08:30:08;;;;;;;33.90;25.02;;;13.30;83.60;;;;;;4999593;28;20060;-71
2022/03/23 08:32:33;;;;;;;31.52;24.70;;;13.50;81.40;;;;;;5015960;28;20044;-71
2022/03/23 08:34:59;;;;;;;35.28;25.58;;;13.80;74.00;;;;;;5016122;28;20041;-70
2022/03/23 08:37:24;;;;;;;33.03;25.33;;;14.00;74.40;;;;;;5016435;28;20387;-70
2022/03/23 08:39:50;;;;;;;28.17;22.23;;;14.30;70.70;;;;;;5015745;28;20390;-71
2022/03/23 08:42:16;;;;;;;30.75;22.63;;;14.60;65.20;;;;;;5016094;28;20037;-71
2022/03/23 08:44:42;;;;;;;30.05;22.63;;;14.90;62.10;;;;;;5016568;28;20464;-71
2022/03/23 08:47:09;;;;;;;29.40;23.70;;;15.20;61.60;;;;;;5016173;28;20037;-72
2022/03/23 08:49:34;;;;;;;25.55;22.50;;;15.50;59.70;;;;;;5015972;28;20063;-72
2022/03/23 08:52:00;;;;;;;31.27;23.15;;;15.80;58.50;;;;;;5015886;28;20560;-72
2022/03/23 08:54:26;;;;;;;29.10;21.75;;;16.10;56.60;;;;;;5015810;28;20055;-72
2022/03/23 08:56:51;;;;;;;25.48;20.45;;;16.30;55.10;;;;;;5015039;28;20047;-72
2022/03/23 08:59:17;;;;;;;25.60;21.17;;;16.60;54.70;;;;;;5015333;28;20560;-73
2022/03/23 09:01:42;;;;;;;26.90;20.42;;;17.00;52.70;;;;;;5015794;28;20037;-73
2022/03/23 09:04:08;;;;;;;27.45;19.75;;;17.30;51.70;;;;;;4999062;28;20040;-73
2022/03/23 09:06:34;;;;;;;24.42;19.40;;;17.60;51.10;;;;;;5015530;28;20029;-73
2022/03/23 09:09:00;;;;;;;23.13;19.38;;;18.10;50.80;;;;;;5015349;28;20034;-72
2022/03/23 09:11:26;;;;;;;26.48;19.02;;;18.50;49.30;;;;;;5015302;28;20117;-72
2022/03/23 09:13:51;;;;;;;22.40;18.15;;;18.90;48.00;;;;;;5015623;28;20417;-72
2022/03/23 09:16:17;;;;;;;23.65;17.15;;;19.40;47.00;;;;;;5015637;28;20405;-72
2022/03/23 09:18:42;;;;;;;24.15;16.10;;;20.00;45.30;;;;;;5015310;28;20409;-72
2022/03/23 09:21:08;;;;;;;24.30;17.25;;;20.50;42.80;;;;;;5015130;28;20037;-73
2022/03/23 09:23:36;;;;;;;21.75;15.60;;;21.10;41.90;;;;;;4998917;28;20038;-73
2022/03/23 09:26:02;;;;;;;21.30;16.40;;;21.70;40.90;;;;;;5015145;28;20052;-73
2022/03/23 09:28:28;;;;;;;22.52;16.17;;;22.10;39.00;;;;;;5015477;28;20045;-73
2022/03/23 09:30:54;;;;;;;18.63;15.07;;;22.50;38.10;;;;;;5015141;28;20043;-73
2022/03/23 09:33:19;;;;;;;21.20;15.32;;;22.90;36.90;;;;;;5015194;28;20045;-73
2022/03/23 09:35:45;;;;;;;19.27;15.38;;;23.10;36.50;;;;;;5015208;28;20072;-73
2022/03/23 09:38:11;;;;;;;20.67;15.68;;;23.20;35.90;;;;;;5015140;28;20107;-73
2022/03/23 09:40:38;;;;;;;20.42;16.02;;;23.30;36.10;;;;;;4998471;28;20045;-73
2022/03/23 09:43:08;;;;;;;18.45;15.05;;;23.30;35.40;;;;;;5015132;28;20501;-73
2022/03/23 09:48:00;;;;;;;20.50;15.38;;;23.50;36.20;;;;;;5015061;28;20599;-73
2022/03/23 09:50:28;;;;;;;19.10;14.95;;;23.50;36.50;;;;;;4998496;28;20099;-73
2022/03/23 09:52:54;;;;;;;19.10;15.25;;;23.40;34.60;;;;;;5015013;28;20456;-73
2022/03/23 09:55:20;;;;;;;18.77;13.70;;;23.30;34.40;;;;;;5015682;28;20045;-72
2022/03/23 09:57:46;;;;;;;16.77;14.07;;;23.30;33.30;;;;;;5014915;28;20045;-72
2022/03/23 10:00:13;;;;;;;16.63;13.20;;;23.10;33.00;;;;;;4998650;28;20068;-73
2022/03/23 10:02:39;;;;;;;29.10;13.63;;;23.00;33.30;;;;;;5014868;28;20046;-73
2022/03/23 10:05:45;;;;;;;15.07;12.82;;;22.90;33.50;;;;;;5015189;28;20029;-73
2022/03/23 10:08:37;;;;;;;17.15;11.68;;;22.90;31.90;;;;;;5015928;28;20096;-73
2022/03/23 10:11:54;;;;;;;18.08;11.52;;;22.90;33.80;;;;;;5018477;28;20041;-73
2022/03/23 10:14:53;;;;;;;17.30;11.98;;;23.00;32.80;;;;;;5018422;28;20635;-73
2022/03/23 10:17:37;;;;;;;17.35;11.07;;;23.10;33.50;;;;;;5002065;28;20049;-73
2022/03/23 10:20:03;;;;;;;18.50;12.57;;;23.10;32.70;;;;;;5018222;28;20087;-73
2022/03/23 10:22:30;;;;;;;15.65;11.68;;;23.20;33.90;;;;;;5002007;28;20041;-73
2022/03/23 10:24:55;;;;;;;15.48;10.18;;;23.30;32.90;;;;;;5002109;28;20402;-73
2022/03/23 10:27:23;;;;;;;15.35;11.52;;;23.40;31.90;;;;;;5001941;28;20034;-73
2022/03/23 10:29:52;;;;;;;20.30;12.45;;;23.40;31.70;;;;;;5018136;28;20053;-73
2022/03/23 10:32:21;;;;;;;15.93;10.85;;;23.50;31.20;;;;;;5018348;28;20120;-73
2022/03/23 10:34:52;;;;;;;18.27;11.45;;;23.50;31.70;;;;;;5018225;28;20053;-73
2022/03/23 10:37:32;;;;;;;15.45;11.52;;;23.50;32.00;;;;;;5018074;28;20072;-73
2022/03/23 10:40:04;;;;;;;25.92;11.68;;;23.60;31.70;;;;;;5017853;28;20045;-73
2022/03/23 10:42:36;;;;;;;18.83;9.00;;;23.70;32.10;;;;;;5018180;28;20056;-73
2022/03/23 10:45:03;;;;;;;16.90;10.03;;;23.80;30.70;;;;;;5018050;28;20120;-73
2022/03/23 10:47:34;;;;;;;17.30;10.35;;;23.80;30.70;;;;;;5017857;28;20087;-73
2022/03/23 10:50:15;;;;;;;18.80;10.25;;;23.80;31.00;;;;;;5001398;28;20225;-74
2022/03/23 10:52:53;;;;;;;24.25;10.15;;;23.90;30.70;;;;;;5017754;28;20049;-73
2022/03/23 10:55:19;;;;;;;23.33;10.77;;;24.00;30.70;;;;;;5017681;28;20048;-73
2022/03/23 10:57:51;;;;;;;21.17;9.88;;;24.00;31.30;;;;;;5017602;28;20386;-74
2022/03/23 11:00:27;;;;;;;17.42;9.60;;;24.10;30.90;;;;;;5017467;28;20445;-74
2022/03/23 11:02:52;;;;;;;19.70;10.23;;;24.00;30.50;;;;;;5001216;28;20044;-74
2022/03/23 11:05:32;;;;;;;24.05;10.48;;;24.00;30.30;;;;;;5017508;28;20041;-74
2022/03/23 11:08:10;;;;;;;17.35;10.15;;;23.80;30.10;;;;;;5017453;28;20045;-74
2022/03/23 11:16:45;;;;;;;26.48;10.10;;;24.10;30.80;;;;;;5017237;28;20081;-74
2022/03/23 11:19:11;;;;;;;23.67;10.02;;;24.30;30.90;;;;;;5016734;28;20047;-74
2022/03/23 11:22:17;;;;;;;22.88;9.40;;;24.30;31.20;;;;;;5000747;28;20033;-74
2022/03/23 11:24:46;;;;;;;16.92;9.93;;;24.30;30.10;;;;;;4954706;29;20103;-74
2022/03/23 11:27:17;;;;;;;25.67;10.02;;;24.40;30.50;;;;;;4938694;29;20082;-74
2022/03/23 11:29:43;;;;;;;23.55;10.65;;;24.60;31.20;;;;;;4980761;28;20524;-74
2022/03/23 11:32:18;;;;;;;17.98;9.43;;;24.70;30.80;;;;;;5016980;28;20079;-74
2022/03/23 11:34:51;;;;;;;24.25;10.13;;;24.90;30.10;;;;;;5000965;28;20059;-73
2022/03/23 11:37:19;;;;;;;22.60;9.15;;;24.90;29.80;;;;;;5016933;28;20124;-74
2022/03/23 11:39:46;;;;;;;25.98;9.32;;;25.00;30.10;;;;;;5016823;28;20628;-74
2022/03/23 11:42:13;;;;;;;22.27;9.40;;;24.80;30.00;;;;;;5000548;28;20124;-73
2022/03/23 11:44:40;;;;;;;29.30;9.32;;;24.80;30.60;;;;;;5017053;28;20041;-73
2022/03/23 11:47:14;;;;;;;26.15;8.18;;;24.80;30.40;;;;;;5016673;28;20033;-74
2022/03/23 11:49:48;;;;;;;25.60;9.02;;;24.90;30.70;;;;;;5000300;28;20052;-74
2022/03/23 11:52:37;;;;;;;22.80;9.13;;;24.90;30.60;;;;;;5016925;28;20448;-74
2022/03/23 11:58:16;;;;;;;24.98;9.23;;;25.10;31.00;;;;;;5016478;28;20045;-74
2022/03/23 12:00:47;;;;;;;23.73;8.02;;;25.20;30.30;;;;;;5016406;28;20096;-74
2022/03/23 12:03:13;;;;;;;24.88;8.30;;;25.20;30.40;;;;;;5000124;28;20400;-74
2022/03/23 12:05:51;;;;;;;17.25;8.80;;;25.20;30.70;;;;;;5016413;28;20040;-73
2022/03/23 12:08:58;;;;;;;29.20;8.15;;;25.30;29.90;;;;;;5016331;28;20489;-74
2022/03/23 12:11:43;;;;;;;26.98;7.82;;;25.30;29.40;;;;;;5016173;28;20413;-74
2022/03/23 12:14:35;;;;;;;17.98;8.73;;;25.30;30.50;;;;;;5016314;28;20045;-74
2022/03/23 12:17:02;;;;;;;19.17;8.10;;;25.40;29.10;;;;;;4999745;28;20561;-74
2022/03/23 12:19:32;;;;;;;22.95;8.73;;;25.40;30.20;;;;;;5015863;28;20053;-74
2022/03/23 12:21:58;;;;;;;25.30;8.13;;;25.50;29.50;;;;;;5000034;28;20041;-74
2022/03/23 12:24:43;;;;;;;19.90;7.70;;;25.50;29.70;;;;;;5016351;28;20525;-73
2022/03/23 12:27:32;;;;;;;18.25;8.55;;;25.70;30.10;;;;;;5016061;28;20037;-73
2022/03/23 12:30:01;;;;;;;20.02;8.65;;;25.60;29.60;;;;;;4999877;28;20049;-74
2022/03/23 12:32:37;;;;;;;20.83;8.43;;;25.70;30.00;;;;;;5016038;28;20498;-74
2022/03/23 12:35:04;;;;;;;26.13;7.97;;;25.70;29.80;;;;;;5016657;28;20401;-74
2022/03/23 12:37:43;;;;;;;27.08;7.63;;;25.70;30.30;;;;;;5016162;28;20119;-74
2022/03/23 12:40:10;;;;;;;14.98;6.57;;;25.80;29.40;;;;;;4999312;28;20087;-74
2022/03/23 12:42:42;;;;;;;27.35;7.68;;;25.90;30.20;;;;;;5015759;28;20071;-74
2022/03/23 12:45:19;;;;;;;19.00;6.65;;;26.00;29.10;;;;;;5015749;28;20040;-74
2022/03/23 12:47:56;;;;;;;26.63;6.72;;;26.00;28.90;;;;;;5016036;28;20498;-73
2022/03/23 12:59:32;;;;;;;21.25;7.72;;;26.00;29.40;;;;;;5015497;28;20057;-73
2022/03/23 13:02:17;;;;;;;22.85;7.65;;;25.90;30.40;;;;;;5015054;28;20056;-73
2022/03/23 13:04:43;;;;;;;22.98;7.75;;;26.00;29.70;;;;;;5015646;28;20103;-73
2022/03/23 13:07:27;;;;;;;22.13;7.70;;;25.90;29.60;;;;;;4999342;28;20486;-73
2022/03/23 13:09:57;;;;;;;21.30;7.95;;;26.10;29.50;;;;;;5015331;28;20049;-73
2022/03/23 13:12:26;;;;;;;25.95;8.75;;;26.00;30.10;;;;;;5015656;28;20045;-73
2022/03/23 13:14:52;;;;;;;17.98;7.60;;;26.10;29.60;;;;;;4998971;28;20092;-74